sensor_id;sensor_type;location;lat;lon;timestamp;P1;durP1;ratioP1;P2;durP2;ratioP2
75620;SDS011;64574;48.506;-2.750;2023-06-10T00:02:07;23.60;;;14.20;;
75620;SDS011;64574;48.506;-2.750;2023-06-10T00:04:33;22.48;;;13.25;;
75620;SDS011;64574;48.506;-2.750;2023-06-10T00:07:01;23.27;;;13.25;;
75620;SDS011;64574;48.506;-2.750;2023-06-10T00:09:29;23.55;;;13.45;;
75620;SDS011;64574;48.506;-2.750;2023-06-10T00:11:55;23.88;;;12.27;;
75620;SDS011;64574;48.506;-2.750;2023-06-10T00:14:20;23.42;;;13.88;;
75620;SDS011;64574;48.506;-2.750;2023-06-10T00:16:46;22.80;;;13.02;;
75620;SDS011;64574;48.506;-2.750;2023-06-10T00:19:11;23.75;;;12.63;;
75620;SDS011;64574;48.506;-2.750;2023-06-10T00:21:39;27.58;;;12.68;;
75620;SDS011;64574;48.506;-2.750;2023-06-10T00:24:09;25.42;;;13.75;;
75620;SDS011;64574;48.506;-2.750;2023-06-10T00:26:37;29.50;;;16.50;;
75620;SDS011;64574;48.506;-2.750;2023-06-10T00:29:03;28.38;;;15.95;;
75620;SDS011;64574;48.506;-2.750;2023-06-10T00:31:29;31.10;;;15.80;;
75620;SDS011;64574;48.506;-2.750;2023-06-10T00:33:55;19.30;;;12.27;;
75620;SDS011;64574;48.506;-2.750;2023-06-10T00:36:21;25.63;;;13.55;;
75620;SDS011;64574;48.506;-2.750;2023-06-10T00:38:46;26.17;;;16.33;;
75620;SDS011;64574;48.506;-2.750;2023-06-10T00:41:12;30.65;;;15.15;;
75620;SDS011;64574;48.506;-2.750;2023-06-10T00:43:38;23.33;;;14.10;;
75620;SDS011;64574;48.506;-2.750;2023-06-10T00:46:04;23.58;;;15.45;;
75620;SDS011;64574;48.506;-2.750;2023-06-10T00:48:30;25.50;;;14.63;;
75620;SDS011;64574;48.506;-2.750;2023-06-10T00:50:56;31.35;;;14.25;;
75620;SDS011;64574;48.506;-2.750;2023-06-10T00:55:48;29.98;;;15.77;;
75620;SDS011;64574;48.506;-2.750;2023-06-10T00:58:14;21.90;;;13.85;;
75620;SDS011;64574;48.506;-2.750;2023-06-10T01:00:40;29.17;;;15.35;;
75620;SDS011;64574;48.506;-2.750;2023-06-10T01:03:06;25.63;;;15.05;;
75620;SDS011;64574;48.506;-2.750;2023-06-10T01:05:33;24.27;;;15.52;;
75620;SDS011;64574;48.506;-2.750;2023-06-10T01:08:03;26.45;;;12.43;;
75620;SDS011;64574;48.506;-2.750;2023-06-10T01:10:53;28.85;;;14.82;;
75620;SDS011;64574;48.506;-2.750;2023-06-10T01:13:23;25.17;;;13.85;;
75620;SDS011;64574;48.506;-2.750;2023-06-10T01:15:53;18.58;;;10.82;;
75620;SDS011;64574;48.506;-2.750;2023-06-10T01:18:20;16.15;;;10.45;;
75620;SDS011;64574;48.506;-2.750;2023-06-10T01:20:46;20.23;;;12.20;;
75620;SDS011;64574;48.506;-2.750;2023-06-10T01:25:41;19.77;;;13.23;;
75620;SDS011;64574;48.506;-2.750;2023-06-10T01:28:21;21.48;;;13.48;;
75620;SDS011;64574;48.506;-2.750;2023-06-10T01:33:47;29.38;;;15.32;;
75620;SDS011;64574;48.506;-2.750;2023-06-10T01:36:16;30.05;;;15.85;;
75620;SDS011;64574;48.506;-2.750;2023-06-10T01:38:44;31.13;;;15.13;;
75620;SDS011;64574;48.506;-2.750;2023-06-10T01:41:14;29.85;;;16.27;;
75620;SDS011;64574;48.506;-2.750;2023-06-10T01:43:42;28.92;;;15.88;;
75620;SDS011;64574;48.506;-2.750;2023-06-10T01:46:09;24.55;;;15.63;;
75620;SDS011;64574;48.506;-2.750;2023-06-10T01:51:02;26.80;;;16.13;;
75620;SDS011;64574;48.506;-2.750;2023-06-10T01:53:28;29.98;;;17.15;;
75620;SDS011;64574;48.506;-2.750;2023-06-10T01:55:54;31.08;;;17.48;;
75620;SDS011;64574;48.506;-2.750;2023-06-10T01:58:19;33.08;;;18.60;;
75620;SDS011;64574;48.506;-2.750;2023-06-10T02:00:45;26.50;;;16.85;;
75620;SDS011;64574;48.506;-2.750;2023-06-10T02:03:11;30.20;;;17.00;;
75620;SDS011;64574;48.506;-2.750;2023-06-10T02:05:37;30.85;;;17.85;;
75620;SDS011;64574;48.506;-2.750;2023-06-10T02:08:03;32.33;;;16.85;;
75620;SDS011;64574;48.506;-2.750;2023-06-10T02:10:28;27.02;;;16.80;;
75620;SDS011;64574;48.506;-2.750;2023-06-10T02:12:54;31.63;;;16.90;;
75620;SDS011;64574;48.506;-2.750;2023-06-10T02:15:20;31.33;;;16.92;;
75620;SDS011;64574;48.506;-2.750;2023-06-10T02:17:45;32.42;;;16.30;;
75620;SDS011;64574;48.506;-2.750;2023-06-10T02:20:11;28.17;;;16.83;;
75620;SDS011;64574;48.506;-2.750;2023-06-10T02:22:38;29.42;;;16.95;;
75620;SDS011;64574;48.506;-2.750;2023-06-10T02:25:04;28.38;;;17.40;;
75620;SDS011;64574;48.506;-2.750;2023-06-10T02:27:30;24.10;;;15.05;;
75620;SDS011;64574;48.506;-2.750;2023-06-10T02:29:56;26.52;;;14.60;;
75620;SDS011;64574;48.506;-2.750;2023-06-10T02:32:22;29.88;;;17.40;;
75620;SDS011;64574;48.506;-2.750;2023-06-10T02:34:48;24.55;;;15.20;;
75620;SDS011;64574;48.506;-2.750;2023-06-10T02:37:16;25.85;;;15.23;;
75620;SDS011;64574;48.506;-2.750;2023-06-10T02:39:42;18.67;;;11.70;;
75620;SDS011;64574;48.506;-2.750;2023-06-10T02:42:07;24.85;;;14.77;;
75620;SDS011;64574;48.506;-2.750;2023-06-10T02:44:33;22.52;;;14.13;;
75620;SDS011;64574;48.506;-2.750;2023-06-10T02:46:59;24.10;;;14.48;;
75620;SDS011;64574;48.506;-2.750;2023-06-10T02:49:25;24.85;;;13.52;;
75620;SDS011;64574;48.506;-2.750;2023-06-10T02:51:53;20.52;;;13.95;;
75620;SDS011;64574;48.506;-2.750;2023-06-10T02:54:19;21.27;;;13.05;;
75620;SDS011;64574;48.506;-2.750;2023-06-10T02:56:45;24.90;;;12.82;;
75620;SDS011;64574;48.506;-2.750;2023-06-10T02:59:12;19.15;;;13.27;;
75620;SDS011;64574;48.506;-2.750;2023-06-10T03:01:38;16.50;;;10.50;;
75620;SDS011;64574;48.506;-2.750;2023-06-10T03:04:05;21.75;;;11.82;;
75620;SDS011;64574;48.506;-2.750;2023-06-10T03:06:30;17.58;;;11.75;;
75620;SDS011;64574;48.506;-2.750;2023-06-10T03:08:58;16.25;;;10.75;;
75620;SDS011;64574;48.506;-2.750;2023-06-10T03:11:24;16.38;;;10.90;;
75620;SDS011;64574;48.506;-2.750;2023-06-10T03:13:51;15.27;;;9.77;;
75620;SDS011;64574;48.506;-2.750;2023-06-10T03:16:17;17.20;;;10.60;;
75620;SDS011;64574;48.506;-2.750;2023-06-10T03:18:43;13.38;;;9.63;;
75620;SDS011;64574;48.506;-2.750;2023-06-10T03:21:09;13.63;;;9.25;;
75620;SDS011;64574;48.506;-2.750;2023-06-10T03:23:34;14.98;;;9.77;;
75620;SDS011;64574;48.506;-2.750;2023-06-10T03:26:00;12.15;;;8.88;;
75620;SDS011;64574;48.506;-2.750;2023-06-10T03:28:26;12.35;;;8.95;;
75620;SDS011;64574;48.506;-2.750;2023-06-10T03:30:52;11.10;;;8.30;;
75620;SDS011;64574;48.506;-2.750;2023-06-10T03:33:17;14.40;;;9.45;;
75620;SDS011;64574;48.506;-2.750;2023-06-10T03:35:43;10.93;;;7.88;;
75620;SDS011;64574;48.506;-2.750;2023-06-10T03:38:09;12.55;;;8.95;;
75620;SDS011;64574;48.506;-2.750;2023-06-10T03:40:34;13.70;;;8.32;;
75620;SDS011;64574;48.506;-2.750;2023-06-10T03:43:00;12.70;;;8.25;;
75620;SDS011;64574;48.506;-2.750;2023-06-10T03:45:26;12.45;;;8.05;;
75620;SDS011;64574;48.506;-2.750;2023-06-10T03:50:18;11.60;;;8.30;;
75620;SDS011;64574;48.506;-2.750;2023-06-10T03:52:44;10.20;;;6.93;;
75620;SDS011;64574;48.506;-2.750;2023-06-10T03:55:10;12.55;;;8.02;;
75620;SDS011;64574;48.506;-2.750;2023-06-10T03:57:38;10.57;;;7.65;;
75620;SDS011;64574;48.506;-2.750;2023-06-10T04:00:04;9.55;;;7.40;;
75620;SDS011;64574;48.506;-2.750;2023-06-10T04:02:36;13.75;;;8.60;;
75620;SDS011;64574;48.506;-2.750;2023-06-10T04:05:02;13.90;;;8.05;;
75620;SDS011;64574;48.506;-2.750;2023-06-10T04:07:28;13.18;;;8.50;;
75620;SDS011;64574;48.506;-2.750;2023-06-10T04:09:53;11.77;;;8.45;;
75620;SDS011;64574;48.506;-2.750;2023-06-10T04:12:19;15.82;;;8.68;;
75620;SDS011;64574;48.506;-2.750;2023-06-10T04:14:44;14.90;;;8.93;;
75620;SDS011;64574;48.506;-2.750;2023-06-10T04:17:10;13.80;;;8.25;;
75620;SDS011;64574;48.506;-2.750;2023-06-10T04:19:36;9.35;;;6.55;;
75620;SDS011;64574;48.506;-2.750;2023-06-10T04:22:02;11.13;;;8.07;;
75620;SDS011;64574;48.506;-2.750;2023-06-10T04:24:28;11.77;;;8.60;;
75620;SDS011;64574;48.506;-2.750;2023-06-10T04:26:54;13.93;;;9.02;;
75620;SDS011;64574;48.506;-2.750;2023-06-10T04:29:20;10.05;;;7.20;;
75620;SDS011;64574;48.506;-2.750;2023-06-10T04:31:45;12.38;;;8.05;;
75620;SDS011;64574;48.506;-2.750;2023-06-10T04:34:11;10.98;;;8.00;;
75620;SDS011;64574;48.506;-2.750;2023-06-10T04:36:37;11.10;;;7.85;;
75620;SDS011;64574;48.506;-2.750;2023-06-10T04:39:03;12.40;;;8.18;;
75620;SDS011;64574;48.506;-2.750;2023-06-10T04:41:30;13.38;;;8.32;;
75620;SDS011;64574;48.506;-2.750;2023-06-10T04:43:56;16.63;;;8.63;;
75620;SDS011;64574;48.506;-2.750;2023-06-10T04:46:22;12.85;;;8.65;;
75620;SDS011;64574;48.506;-2.750;2023-06-10T04:48:49;13.00;;;8.10;;
75620;SDS011;64574;48.506;-2.750;2023-06-10T04:51:15;12.82;;;8.27;;
75620;SDS011;64574;48.506;-2.750;2023-06-10T04:53:41;10.20;;;7.35;;
75620;SDS011;64574;48.506;-2.750;2023-06-10T04:56:07;10.60;;;8.27;;
75620;SDS011;64574;48.506;-2.750;2023-06-10T04:58:33;12.90;;;7.93;;
75620;SDS011;64574;48.506;-2.750;2023-06-10T05:00:59;15.20;;;8.70;;
75620;SDS011;64574;48.506;-2.750;2023-06-10T05:03:25;14.73;;;8.38;;
75620;SDS011;64574;48.506;-2.750;2023-06-10T05:05:51;15.07;;;9.27;;
75620;SDS011;64574;48.506;-2.750;2023-06-10T05:08:17;12.13;;;8.77;;
75620;SDS011;64574;48.506;-2.750;2023-06-10T05:10:43;16.98;;;9.23;;
75620;SDS011;64574;48.506;-2.750;2023-06-10T05:13:09;13.32;;;8.63;;
75620;SDS011;64574;48.506;-2.750;2023-06-10T05:15:34;13.93;;;9.13;;
75620;SDS011;64574;48.506;-2.750;2023-06-10T05:18:00;13.15;;;8.05;;
75620;SDS011;64574;48.506;-2.750;2023-06-10T05:20:27;16.08;;;9.85;;
75620;SDS011;64574;48.506;-2.750;2023-06-10T05:22:54;16.10;;;9.30;;
75620;SDS011;64574;48.506;-2.750;2023-06-10T05:25:19;14.25;;;9.98;;
75620;SDS011;64574;48.506;-2.750;2023-06-10T05:27:45;13.32;;;8.32;;
75620;SDS011;64574;48.506;-2.750;2023-06-10T05:30:11;13.50;;;8.40;;
75620;SDS011;64574;48.506;-2.750;2023-06-10T05:32:37;12.68;;;7.97;;
75620;SDS011;64574;48.506;-2.750;2023-06-10T05:35:02;12.45;;;8.60;;
75620;SDS011;64574;48.506;-2.750;2023-06-10T05:37:29;13.32;;;8.55;;
75620;SDS011;64574;48.506;-2.750;2023-06-10T05:39:55;14.45;;;9.13;;
75620;SDS011;64574;48.506;-2.750;2023-06-10T05:42:21;12.63;;;8.38;;
75620;SDS011;64574;48.506;-2.750;2023-06-10T05:44:46;12.52;;;7.68;;
75620;SDS011;64574;48.506;-2.750;2023-06-10T05:47:12;15.55;;;9.10;;
75620;SDS011;64574;48.506;-2.750;2023-06-10T05:49:37;12.13;;;7.85;;
75620;SDS011;64574;48.506;-2.750;2023-06-10T05:52:03;16.27;;;9.13;;
75620;SDS011;64574;48.506;-2.750;2023-06-10T05:54:29;12.93;;;8.88;;
75620;SDS011;64574;48.506;-2.750;2023-06-10T05:56:55;14.07;;;8.40;;
75620;SDS011;64574;48.506;-2.750;2023-06-10T05:59:20;15.93;;;9.57;;
75620;SDS011;64574;48.506;-2.750;2023-06-10T06:01:47;14.15;;;8.80;;
75620;SDS011;64574;48.506;-2.750;2023-06-10T06:04:14;13.07;;;9.45;;
75620;SDS011;64574;48.506;-2.750;2023-06-10T06:06:39;13.82;;;8.93;;
75620;SDS011;64574;48.506;-2.750;2023-06-10T06:09:05;16.00;;;9.35;;
75620;SDS011;64574;48.506;-2.750;2023-06-10T06:11:31;13.18;;;9.02;;
75620;SDS011;64574;48.506;-2.750;2023-06-10T06:13:58;12.02;;;7.97;;
75620;SDS011;64574;48.506;-2.750;2023-06-10T06:16:23;13.10;;;9.07;;
75620;SDS011;64574;48.506;-2.750;2023-06-10T06:18:49;15.55;;;9.35;;
75620;SDS011;64574;48.506;-2.750;2023-06-10T06:21:15;17.13;;;9.55;;
75620;SDS011;64574;48.506;-2.750;2023-06-10T06:23:40;15.07;;;9.10;;
75620;SDS011;64574;48.506;-2.750;2023-06-10T06:26:06;13.48;;;8.88;;
75620;SDS011;64574;48.506;-2.750;2023-06-10T06:30:57;14.20;;;8.27;;
75620;SDS011;64574;48.506;-2.750;2023-06-10T06:33:22;12.68;;;8.23;;
75620;SDS011;64574;48.506;-2.750;2023-06-10T06:35:48;12.45;;;8.77;;
75620;SDS011;64574;48.506;-2.750;2023-06-10T06:38:14;14.23;;;9.45;;
75620;SDS011;64574;48.506;-2.750;2023-06-10T06:40:39;13.98;;;9.57;;
75620;SDS011;64574;48.506;-2.750;2023-06-10T06:43:05;13.95;;;9.02;;
75620;SDS011;64574;48.506;-2.750;2023-06-10T06:45:30;16.13;;;9.05;;
75620;SDS011;64574;48.506;-2.750;2023-06-10T06:47:58;12.95;;;8.88;;
75620;SDS011;64574;48.506;-2.750;2023-06-10T06:50:24;11.32;;;7.95;;
75620;SDS011;64574;48.506;-2.750;2023-06-10T06:52:50;14.40;;;8.07;;
75620;SDS011;64574;48.506;-2.750;2023-06-10T06:55:16;12.80;;;8.07;;
75620;SDS011;64574;48.506;-2.750;2023-06-10T06:57:41;12.35;;;7.32;;
75620;SDS011;64574;48.506;-2.750;2023-06-10T07:00:07;14.95;;;8.55;;
75620;SDS011;64574;48.506;-2.750;2023-06-10T07:02:34;12.10;;;7.90;;
75620;SDS011;64574;48.506;-2.750;2023-06-10T07:05:00;13.02;;;8.35;;
75620;SDS011;64574;48.506;-2.750;2023-06-10T07:07:26;13.00;;;7.53;;
75620;SDS011;64574;48.506;-2.750;2023-06-10T07:09:52;10.90;;;7.40;;
75620;SDS011;64574;48.506;-2.750;2023-06-10T07:12:17;11.77;;;8.00;;
75620;SDS011;64574;48.506;-2.750;2023-06-10T07:14:43;12.10;;;7.75;;
75620;SDS011;64574;48.506;-2.750;2023-06-10T07:17:09;11.32;;;7.93;;
75620;SDS011;64574;48.506;-2.750;2023-06-10T07:19:35;13.25;;;8.00;;
75620;SDS011;64574;48.506;-2.750;2023-06-10T07:22:00;12.80;;;7.32;;
75620;SDS011;64574;48.506;-2.750;2023-06-10T07:24:26;10.50;;;7.68;;
75620;SDS011;64574;48.506;-2.750;2023-06-10T07:26:52;14.57;;;8.57;;
75620;SDS011;64574;48.506;-2.750;2023-06-10T07:29:17;11.05;;;7.57;;
75620;SDS011;64574;48.506;-2.750;2023-06-10T07:31:43;10.40;;;7.43;;
75620;SDS011;64574;48.506;-2.750;2023-06-10T07:34:08;11.07;;;7.07;;
75620;SDS011;64574;48.506;-2.750;2023-06-10T07:36:34;11.75;;;7.03;;
75620;SDS011;64574;48.506;-2.750;2023-06-10T07:39:00;10.05;;;6.07;;
75620;SDS011;64574;48.506;-2.750;2023-06-10T07:41:25;11.63;;;7.30;;
75620;SDS011;64574;48.506;-2.750;2023-06-10T07:43:52;13.68;;;8.40;;
75620;SDS011;64574;48.506;-2.750;2023-06-10T07:46:22;12.40;;;7.20;;
75620;SDS011;64574;48.506;-2.750;2023-06-10T07:48:49;14.45;;;8.32;;
75620;SDS011;64574;48.506;-2.750;2023-06-10T07:51:15;11.20;;;7.40;;
75620;SDS011;64574;48.506;-2.750;2023-06-10T07:53:41;11.55;;;7.97;;
75620;SDS011;64574;48.506;-2.750;2023-06-10T07:56:07;13.43;;;8.38;;
75620;SDS011;64574;48.506;-2.750;2023-06-10T07:58:33;11.75;;;6.82;;
75620;SDS011;64574;48.506;-2.750;2023-06-10T08:00:58;11.82;;;7.90;;
75620;SDS011;64574;48.506;-2.750;2023-06-10T08:03:24;10.88;;;8.23;;
75620;SDS011;64574;48.506;-2.750;2023-06-10T08:05:49;13.98;;;7.32;;
75620;SDS011;64574;48.506;-2.750;2023-06-10T08:08:15;10.60;;;7.43;;
75620;SDS011;64574;48.506;-2.750;2023-06-10T08:10:40;11.18;;;7.55;;
75620;SDS011;64574;48.506;-2.750;2023-06-10T08:13:07;12.75;;;7.15;;
75620;SDS011;64574;48.506;-2.750;2023-06-10T08:15:33;11.38;;;8.00;;
75620;SDS011;64574;48.506;-2.750;2023-06-10T08:17:59;13.68;;;8.27;;
75620;SDS011;64574;48.506;-2.750;2023-06-10T08:20:24;11.23;;;7.82;;
75620;SDS011;64574;48.506;-2.750;2023-06-10T08:22:50;10.38;;;7.45;;
75620;SDS011;64574;48.506;-2.750;2023-06-10T08:25:16;16.05;;;8.35;;
75620;SDS011;64574;48.506;-2.750;2023-06-10T08:27:41;10.63;;;7.78;;
75620;SDS011;64574;48.506;-2.750;2023-06-10T08:30:07;10.35;;;7.57;;
75620;SDS011;64574;48.506;-2.750;2023-06-10T08:32:35;12.27;;;7.88;;
75620;SDS011;64574;48.506;-2.750;2023-06-10T08:35:01;12.57;;;7.85;;
75620;SDS011;64574;48.506;-2.750;2023-06-10T08:37:27;10.65;;;7.72;;
75620;SDS011;64574;48.506;-2.750;2023-06-10T08:39:53;9.32;;;6.47;;
75620;SDS011;64574;48.506;-2.750;2023-06-10T08:42:22;11.15;;;7.60;;
75620;SDS011;64574;48.506;-2.750;2023-06-10T08:45:17;12.10;;;6.93;;
75620;SDS011;64574;48.506;-2.750;2023-06-10T08:47:44;11.57;;;7.57;;
75620;SDS011;64574;48.506;-2.750;2023-06-10T08:50:11;9.95;;;7.00;;
75620;SDS011;64574;48.506;-2.750;2023-06-10T08:52:37;12.30;;;7.63;;
75620;SDS011;64574;48.506;-2.750;2023-06-10T08:55:13;11.52;;;7.30;;
75620;SDS011;64574;48.506;-2.750;2023-06-10T08:57:45;13.32;;;7.13;;
75620;SDS011;64574;48.506;-2.750;2023-06-10T09:00:13;12.27;;;7.47;;
75620;SDS011;64574;48.506;-2.750;2023-06-10T09:02:40;9.98;;;6.50;;
75620;SDS011;64574;48.506;-2.750;2023-06-10T09:05:06;10.98;;;7.07;;
75620;SDS011;64574;48.506;-2.750;2023-06-10T09:07:33;9.95;;;7.22;;
75620;SDS011;64574;48.506;-2.750;2023-06-10T09:10:01;9.80;;;7.55;;
75620;SDS011;64574;48.506;-2.750;2023-06-10T09:12:29;13.07;;;6.78;;
75620;SDS011;64574;48.506;-2.750;2023-06-10T09:14:55;9.20;;;6.97;;
75620;SDS011;64574;48.506;-2.750;2023-06-10T09:17:20;9.77;;;6.45;;
75620;SDS011;64574;48.506;-2.750;2023-06-10T09:19:47;11.00;;;6.78;;
75620;SDS011;64574;48.506;-2.750;2023-06-10T09:22:14;9.82;;;6.88;;
75620;SDS011;64574;48.506;-2.750;2023-06-10T09:24:39;10.95;;;6.25;;
75620;SDS011;64574;48.506;-2.750;2023-06-10T09:27:06;9.07;;;6.60;;
75620;SDS011;64574;48.506;-2.750;2023-06-10T09:29:52;8.68;;;6.03;;
75620;SDS011;64574;48.506;-2.750;2023-06-10T09:32:19;9.32;;;6.63;;
75620;SDS011;64574;48.506;-2.750;2023-06-10T09:37:11;13.80;;;9.05;;
75620;SDS011;64574;48.506;-2.750;2023-06-10T09:39:39;9.05;;;6.70;;
75620;SDS011;64574;48.506;-2.750;2023-06-10T09:42:18;8.73;;;6.28;;
75620;SDS011;64574;48.506;-2.750;2023-06-10T09:44:50;9.93;;;6.07;;
75620;SDS011;64574;48.506;-2.750;2023-06-10T09:47:21;8.95;;;6.55;;
75620;SDS011;64574;48.506;-2.750;2023-06-10T09:49:48;11.82;;;6.75;;
75620;SDS011;64574;48.506;-2.750;2023-06-10T09:52:14;10.60;;;6.70;;
75620;SDS011;64574;48.506;-2.750;2023-06-10T09:54:46;6.97;;;5.60;;
75620;SDS011;64574;48.506;-2.750;2023-06-10T09:57:12;10.15;;;5.22;;
75620;SDS011;64574;48.506;-2.750;2023-06-10T09:59:39;9.88;;;7.40;;
75620;SDS011;64574;48.506;-2.750;2023-06-10T10:04:31;7.63;;;5.10;;
75620;SDS011;64574;48.506;-2.750;2023-06-10T10:07:00;9.52;;;5.47;;
75620;SDS011;64574;48.506;-2.750;2023-06-10T10:09:26;18.30;;;10.13;;
75620;SDS011;64574;48.506;-2.750;2023-06-10T10:11:52;15.90;;;9.90;;
75620;SDS011;64574;48.506;-2.750;2023-06-10T10:14:19;17.23;;;10.38;;
75620;SDS011;64574;48.506;-2.750;2023-06-10T10:16:46;15.95;;;9.25;;
75620;SDS011;64574;48.506;-2.750;2023-06-10T10:19:19;18.73;;;10.13;;
75620;SDS011;64574;48.506;-2.750;2023-06-10T10:21:52;17.73;;;10.40;;
75620;SDS011;64574;48.506;-2.750;2023-06-10T10:24:23;17.45;;;9.27;;
75620;SDS011;64574;48.506;-2.750;2023-06-10T10:26:55;16.20;;;9.70;;
75620;SDS011;64574;48.506;-2.750;2023-06-10T10:29:57;16.90;;;9.85;;
75620;SDS011;64574;48.506;-2.750;2023-06-10T10:32:17;18.17;;;10.10;;
75620;SDS011;64574;48.506;-2.750;2023-06-10T10:37:36;21.75;;;10.32;;
75620;SDS011;64574;48.506;-2.750;2023-06-10T10:40:02;15.65;;;10.52;;
75620;SDS011;64574;48.506;-2.750;2023-06-10T10:42:29;18.80;;;10.35;;
75620;SDS011;64574;48.506;-2.750;2023-06-10T10:44:55;15.15;;;11.18;;
75620;SDS011;64574;48.506;-2.750;2023-06-10T10:47:21;16.45;;;9.45;;
75620;SDS011;64574;48.506;-2.750;2023-06-10T10:49:50;14.32;;;9.52;;
75620;SDS011;64574;48.506;-2.750;2023-06-10T10:52:19;17.67;;;10.18;;
75620;SDS011;64574;48.506;-2.750;2023-06-10T10:54:45;18.83;;;11.27;;
75620;SDS011;64574;48.506;-2.750;2023-06-10T10:57:18;18.40;;;11.05;;
75620;SDS011;64574;48.506;-2.750;2023-06-10T11:05:03;14.35;;;10.20;;
75620;SDS011;64574;48.506;-2.750;2023-06-10T11:10:00;16.17;;;9.50;;
75620;SDS011;64574;48.506;-2.750;2023-06-10T11:15:32;18.60;;;10.68;;
75620;SDS011;64574;48.506;-2.750;2023-06-10T11:18:13;14.95;;;9.23;;
75620;SDS011;64574;48.506;-2.750;2023-06-10T11:23:08;13.70;;;9.60;;
75620;SDS011;64574;48.506;-2.750;2023-06-10T11:25:41;15.43;;;9.43;;
75620;SDS011;64574;48.506;-2.750;2023-06-10T11:28:19;17.48;;;10.15;;
75620;SDS011;64574;48.506;-2.750;2023-06-10T11:30:45;15.15;;;9.60;;
75620;SDS011;64574;48.506;-2.750;2023-06-10T11:33:16;15.95;;;9.80;;
75620;SDS011;64574;48.506;-2.750;2023-06-10T11:35:42;18.63;;;11.30;;
75620;SDS011;64574;48.506;-2.750;2023-06-10T11:38:09;17.92;;;9.55;;
75620;SDS011;64574;48.506;-2.750;2023-06-10T11:43:03;15.98;;;10.35;;
75620;SDS011;64574;48.506;-2.750;2023-06-10T11:45:30;18.67;;;10.75;;
75620;SDS011;64574;48.506;-2.750;2023-06-10T11:47:57;18.13;;;9.70;;
75620;SDS011;64574;48.506;-2.750;2023-06-10T11:50:32;16.13;;;10.10;;
75620;SDS011;64574;48.506;-2.750;2023-06-10T11:52:58;18.80;;;11.68;;
75620;SDS011;64574;48.506;-2.750;2023-06-10T11:55:46;17.02;;;9.55;;
75620;SDS011;64574;48.506;-2.750;2023-06-10T11:58:20;14.93;;;9.48;;
75620;SDS011;64574;48.506;-2.750;2023-06-10T12:00:47;18.58;;;10.38;;
75620;SDS011;64574;48.506;-2.750;2023-06-10T12:03:14;16.25;;;9.82;;
75620;SDS011;64574;48.506;-2.750;2023-06-10T12:05:40;17.08;;;10.07;;
75620;SDS011;64574;48.506;-2.750;2023-06-10T12:08:25;17.27;;;9.95;;
75620;SDS011;64574;48.506;-2.750;2023-06-10T12:10:52;14.40;;;9.07;;
75620;SDS011;64574;48.506;-2.750;2023-06-10T12:13:18;15.20;;;8.95;;
75620;SDS011;64574;48.506;-2.750;2023-06-10T12:15:44;13.95;;;8.45;;
75620;SDS011;64574;48.506;-2.750;2023-06-10T12:18:17;14.35;;;8.77;;
75620;SDS011;64574;48.506;-2.750;2023-06-10T12:20:47;13.40;;;8.88;;
75620;SDS011;64574;48.506;-2.750;2023-06-10T12:23:13;13.85;;;8.15;;
75620;SDS011;64574;48.506;-2.750;2023-06-10T12:25:43;12.18;;;7.88;;
75620;SDS011;64574;48.506;-2.750;2023-06-10T12:28:25;14.23;;;8.70;;
75620;SDS011;64574;48.506;-2.750;2023-06-10T12:30:52;12.52;;;6.70;;
75620;SDS011;64574;48.506;-2.750;2023-06-10T12:33:33;14.25;;;8.60;;
75620;SDS011;64574;48.506;-2.750;2023-06-10T12:35:58;12.25;;;8.27;;
75620;SDS011;64574;48.506;-2.750;2023-06-10T12:38:25;11.10;;;7.13;;
75620;SDS011;64574;48.506;-2.750;2023-06-10T12:40:54;12.80;;;7.35;;
75620;SDS011;64574;48.506;-2.750;2023-06-10T12:43:26;11.88;;;6.85;;
75620;SDS011;64574;48.506;-2.750;2023-06-10T12:45:51;11.98;;;6.82;;
75620;SDS011;64574;48.506;-2.750;2023-06-10T12:50:46;14.15;;;8.30;;
75620;SDS011;64574;48.506;-2.750;2023-06-10T12:53:16;12.75;;;7.45;;
75620;SDS011;64574;48.506;-2.750;2023-06-10T12:55:41;13.90;;;7.78;;
75620;SDS011;64574;48.506;-2.750;2023-06-10T12:58:10;13.35;;;6.72;;
75620;SDS011;64574;48.506;-2.750;2023-06-10T13:00:36;12.20;;;6.30;;
75620;SDS011;64574;48.506;-2.750;2023-06-10T13:03:02;10.80;;;6.20;;
75620;SDS011;64574;48.506;-2.750;2023-06-10T13:05:28;8.23;;;5.88;;
75620;SDS011;64574;48.506;-2.750;2023-06-10T13:07:54;11.55;;;6.30;;
75620;SDS011;64574;48.506;-2.750;2023-06-10T13:10:20;9.77;;;5.95;;
75620;SDS011;64574;48.506;-2.750;2023-06-10T13:12:46;8.60;;;5.90;;
75620;SDS011;64574;48.506;-2.750;2023-06-10T13:15:12;9.50;;;5.45;;
75620;SDS011;64574;48.506;-2.750;2023-06-10T13:17:39;9.98;;;5.75;;
75620;SDS011;64574;48.506;-2.750;2023-06-10T13:20:06;8.25;;;5.75;;
75620;SDS011;64574;48.506;-2.750;2023-06-10T13:22:32;10.18;;;5.97;;
75620;SDS011;64574;48.506;-2.750;2023-06-10T13:25:00;10.68;;;5.63;;
75620;SDS011;64574;48.506;-2.750;2023-06-10T13:27:29;7.60;;;4.32;;
75620;SDS011;64574;48.506;-2.750;2023-06-10T13:29:55;8.65;;;5.32;;
75620;SDS011;64574;48.506;-2.750;2023-06-10T13:32:21;8.10;;;4.93;;
75620;SDS011;64574;48.506;-2.750;2023-06-10T13:34:47;6.65;;;4.38;;
75620;SDS011;64574;48.506;-2.750;2023-06-10T13:37:14;8.18;;;5.07;;
75620;SDS011;64574;48.506;-2.750;2023-06-10T13:39:40;9.50;;;4.57;;
75620;SDS011;64574;48.506;-2.750;2023-06-10T13:42:06;6.78;;;4.63;;
75620;SDS011;64574;48.506;-2.750;2023-06-10T13:44:33;6.63;;;4.70;;
75620;SDS011;64574;48.506;-2.750;2023-06-10T13:47:01;8.40;;;4.47;;
75620;SDS011;64574;48.506;-2.750;2023-06-10T13:49:27;7.75;;;4.90;;
75620;SDS011;64574;48.506;-2.750;2023-06-10T13:51:53;7.88;;;4.65;;
75620;SDS011;64574;48.506;-2.750;2023-06-10T13:54:18;7.60;;;5.10;;
75620;SDS011;64574;48.506;-2.750;2023-06-10T13:56:44;9.00;;;5.13;;
75620;SDS011;64574;48.506;-2.750;2023-06-10T13:59:09;9.40;;;4.80;;
75620;SDS011;64574;48.506;-2.750;2023-06-10T14:01:35;6.07;;;4.32;;
75620;SDS011;64574;48.506;-2.750;2023-06-10T14:04:01;7.47;;;4.22;;
75620;SDS011;64574;48.506;-2.750;2023-06-10T14:06:27;8.30;;;5.20;;
75620;SDS011;64574;48.506;-2.750;2023-06-10T14:08:53;9.60;;;5.07;;
75620;SDS011;64574;48.506;-2.750;2023-06-10T14:11:19;7.88;;;4.93;;
75620;SDS011;64574;48.506;-2.750;2023-06-10T14:13:46;7.85;;;4.47;;
75620;SDS011;64574;48.506;-2.750;2023-06-10T14:16:11;7.45;;;4.63;;
75620;SDS011;64574;48.506;-2.750;2023-06-10T14:18:37;7.60;;;4.82;;
75620;SDS011;64574;48.506;-2.750;2023-06-10T14:21:03;8.63;;;4.72;;
75620;SDS011;64574;48.506;-2.750;2023-06-10T14:23:28;7.07;;;4.80;;
75620;SDS011;64574;48.506;-2.750;2023-06-10T14:25:54;7.57;;;4.30;;
75620;SDS011;64574;48.506;-2.750;2023-06-10T14:28:20;6.07;;;3.90;;
75620;SDS011;64574;48.506;-2.750;2023-06-10T14:30:45;5.85;;;3.90;;
75620;SDS011;64574;48.506;-2.750;2023-06-10T14:33:11;7.20;;;4.60;;
75620;SDS011;64574;48.506;-2.750;2023-06-10T14:35:37;7.43;;;4.50;;
75620;SDS011;64574;48.506;-2.750;2023-06-10T14:38:02;6.18;;;4.22;;
75620;SDS011;64574;48.506;-2.750;2023-06-10T14:40:28;6.72;;;4.15;;
75620;SDS011;64574;48.506;-2.750;2023-06-10T14:42:57;8.50;;;3.92;;
75620;SDS011;64574;48.506;-2.750;2023-06-10T14:45:22;6.15;;;4.18;;
75620;SDS011;64574;48.506;-2.750;2023-06-10T14:47:50;6.53;;;4.18;;
75620;SDS011;64574;48.506;-2.750;2023-06-10T14:50:16;6.57;;;4.38;;
75620;SDS011;64574;48.506;-2.750;2023-06-10T14:52:41;7.38;;;4.43;;
75620;SDS011;64574;48.506;-2.750;2023-06-10T14:55:07;6.82;;;4.80;;
75620;SDS011;64574;48.506;-2.750;2023-06-10T14:57:33;8.07;;;4.40;;
75620;SDS011;64574;48.506;-2.750;2023-06-10T14:59:58;8.82;;;5.00;;
75620;SDS011;64574;48.506;-2.750;2023-06-10T15:02:24;6.25;;;3.85;;